Time;durP1;ratioP1;P1;durP2;ratioP2;P2;SDS_P1;SDS_P2;PMS_P1;PMS_P2;Temp;Humidity;BMP_temperature;BMP_pressure;BME280_temperature;BME280_humidity;BME280_pressure;Samples;Min_cycle;Max_cycle;Signal;HPM_P1;HPM_P2
2023/08/03 00:02:22;;;;;;;12.57;2.33;;;;;;;21.12;59.08;96117.66;5085812;28;20269;-69
2023/08/03 00:04:47;;;;;;;6.07;1.80;;;;;;;21.08;58.76;96123.72;5083551;28;20201;-69
2023/08/03 00:07:13;;;;;;;9.50;2.03;;;;;;;21.09;58.41;96125.34;5089111;28;20216;-70
2023/08/03 00:09:39;;;;;;;14.63;2.17;;;;;;;21.10;58.12;96126.97;5093381;28;20750;-69
2023/08/03 00:12:06;;;;;;;10.70;1.90;;;;;;;21.09;58.69;96125.34;5091670;28;20198;-70
2023/08/03 00:14:34;;;;;;;9.07;2.10;;;;;;;21.13;58.39;96131.81;5088164;28;20424;-69
2023/08/03 00:16:59;;;;;;;5.07;2.03;;;;;;;21.15;58.39;96130.50;5082858;28;20462;-69
2023/08/03 00:19:25;;;;;;;10.20;2.03;;;;;;;21.21;58.28;96128.72;5088262;28;20819;-71
2023/08/03 00:21:51;;;;;;;7.70;2.10;;;;;;;21.21;58.29;96139.38;5089118;28;20650;-68
2023/08/03 00:24:16;;;;;;;9.23;2.10;;;;;;;21.17;58.64;96127.59;5081662;28;20186;-69
2023/08/03 00:26:41;;;;;;;10.70;2.03;;;;;;;21.21;58.30;96136.69;5088071;28;20205;-70
2023/08/03 00:29:07;;;;;;;8.63;2.27;;;;;;;21.05;59.06;96134.88;5087615;28;20205;-69
2023/08/03 00:31:32;;;;;;;6.87;2.37;;;;;;;21.08;59.04;96139.72;5084996;28;20285;-69
2023/08/03 00:33:58;;;;;;;10.53;3.30;;;;;;;21.11;59.13;96120.59;5088754;28;20189;-71
2023/08/03 00:36:23;;;;;;;6.40;1.90;;;;;;;21.01;59.04;96127.38;5084331;28;20211;-70
2023/08/03 00:38:49;;;;;;;12.73;2.20;;;;;;;20.98;58.95;96121.75;5088019;28;20192;-70
2023/08/03 00:41:14;;;;;;;5.60;2.13;;;;;;;20.96;58.80;96137.97;5087466;28;20671;-71
2023/08/03 00:43:40;;;;;;;4.93;2.07;;;;;;;20.89;58.88;96128.53;5086995;28;20220;-70
2023/08/03 00:46:05;;;;;;;13.80;2.10;;;;;;;20.91;59.05;96115.78;5088394;28;20204;-70
2023/08/03 00:48:30;;;;;;;7.53;1.93;;;;;;;20.96;59.01;96126.50;5085701;28;20280;-71
2023/08/03 00:50:56;;;;;;;11.90;2.50;;;;;;;20.96;58.64;96131.84;5086946;28;20182;-69
2023/08/03 00:53:22;;;;;;;14.27;2.33;;;;;;;20.82;59.25;96113.53;5087792;28;20211;-68
2023/08/03 00:55:47;;;;;;;14.93;2.27;;;;;;;20.90;58.43;96119.50;5087272;28;20488;-69
2023/08/03 00:58:13;;;;;;;8.13;2.40;;;;;;;20.96;58.49;96127.31;5085109;28;20209;-68
2023/08/03 01:00:38;;;;;;;11.80;2.23;;;;;;;21.00;58.39;96116.97;5085256;28;20243;-68
2023/08/03 01:03:04;;;;;;;10.23;2.30;;;;;;;21.06;58.37;96131.16;5084305;28;20699;-69
2023/08/03 01:05:32;;;;;;;11.70;2.20;;;;;;;21.01;58.55;96129.22;5079100;28;20270;-69
2023/08/03 01:07:57;;;;;;;9.07;2.40;;;;;;;20.96;58.87;96124.66;5089271;28;20205;-71
2023/08/03 01:10:23;;;;;;;9.23;2.63;;;;;;;20.92;59.01;96128.84;5089704;28;20424;-69
2023/08/03 01:12:49;;;;;;;12.47;2.00;;;;;;;20.96;58.76;96135.28;5091001;28;20201;-70
2023/08/03 01:15:15;;;;;;;6.43;1.80;;;;;;;20.96;58.38;96137.97;5087149;28;20555;-70
2023/08/03 01:17:40;;;;;;;6.33;2.07;;;;;;;20.90;58.09;96138.94;5088823;28;20459;-69
2023/08/03 01:20:06;;;;;;;10.53;2.40;;;;;;;20.83;57.86;96147.09;5090778;28;20261;-68
2023/08/03 01:22:39;;;;;;;7.53;1.80;;;;;;;20.72;57.79;96140.00;5088330;28;20182;-68
2023/08/03 01:25:05;;;;;;;9.10;2.10;;;;;;;20.84;58.02;96145.25;5087072;28;20436;-70
2023/08/03 01:27:31;;;;;;;5.10;1.90;;;;;;;20.90;57.21;96133.63;5087997;28;20443;-70
2023/08/03 01:29:57;;;;;;;14.50;2.37;;;;;;;20.83;57.34;96136.47;5088990;28;20430;-67
2023/08/03 01:32:22;;;;;;;6.73;1.93;;;;;;;20.86;57.12;96137.81;5091204;28;20209;-69
2023/08/03 01:34:48;;;;;;;3.93;1.70;;;;;;;20.95;56.38;96138.22;5089468;28;20216;-69
2023/08/03 01:37:14;;;;;;;7.20;2.10;;;;;;;20.90;55.97;96119.50;5091609;28;20225;-72
2023/08/03 01:39:44;;;;;;;7.80;1.90;;;;;;;20.82;56.17;96104.75;5071584;28;20186;-70
2023/08/03 01:42:10;;;;;;;12.83;2.53;;;;;;;20.85;55.77;96105.09;5087370;28;20268;-70
2023/08/03 01:44:36;;;;;;;7.63;1.77;;;;;;;20.92;55.38;96110.19;5087918;28;20419;-70
2023/08/03 01:47:01;;;;;;;6.80;1.90;;;;;;;20.78;54.79;96119.59;5088481;28;20451;-69
2023/08/03 01:49:28;;;;;;;9.60;2.23;;;;;;;20.88;54.57;96114.44;5085054;28;20705;-71
2023/08/03 01:51:53;;;;;;;11.47;2.07;;;;;;;20.85;54.43;96120.22;5088148;28;20193;-71
2023/08/03 01:54:19;;;;;;;6.13;2.00;;;;;;;20.80;54.24;96118.31;5086929;28;21011;-70
2023/08/03 01:56:44;;;;;;;12.03;1.70;;;;;;;20.95;53.78;96123.03;5088267;28;20736;-70
2023/08/03 01:59:10;;;;;;;5.50;1.67;;;;;;;20.77;53.70;96131.31;5087439;28;20550;-70
2023/08/03 02:01:36;;;;;;;7.77;1.57;;;;;;;20.76;53.85;96129.69;5087957;28;20214;-69
2023/08/03 02:04:02;;;;;;;6.00;1.67;;;;;;;20.88;53.53;96135.72;5087715;28;20431;-69
2023/08/03 02:06:27;;;;;;;6.70;1.20;;;;;;;20.71;53.18;96149.81;5078531;28;20212;-69
2023/08/03 02:08:52;;;;;;;8.67;1.47;;;;;;;20.86;52.74;96143.16;5086902;28;20205;-70
2023/08/03 02:11:18;;;;;;;7.73;1.60;;;;;;;20.74;52.93;96145.06;5087913;28;20250;-71
2023/08/03 02:13:43;;;;;;;10.03;1.70;;;;;;;20.64;53.00;96141.19;5087965;28;20569;-70
2023/08/03 02:16:10;;;;;;;13.13;2.23;;;;;;;20.67;53.43;96156.66;5083695;28;20189;-71
2023/08/03 02:18:39;;;;;;;6.40;1.57;;;;;;;20.75;53.32;96147.50;5088796;28;20646;-70
2023/08/03 02:21:07;;;;;;;4.20;1.60;;;;;;;20.76;53.22;96158.97;5086827;28;20431;-70
2023/08/03 02:23:33;;;;;;;14.10;2.00;;;;;;;20.74;53.11;96153.06;5086473;28;20937;-69
2023/08/03 02:26:02;;;;;;;7.03;1.83;;;;;;;20.63;53.26;96168.03;5087064;28;20434;-69
2023/08/03 02:28:28;;;;;;;8.90;1.63;;;;;;;20.75;53.11;96165.34;5083706;28;20210;-71
2023/08/03 02:30:53;;;;;;;5.57;1.90;;;;;;;20.69;53.28;96164.44;5085076;28;20940;-69
2023/08/03 02:33:18;;;;;;;5.73;1.53;;;;;;;20.72;53.53;96153.31;5088097;28;20613;-71
2023/08/03 02:35:44;;;;;;;7.80;1.87;;;;;;;20.65;53.46;96153.47;5084157;28;20592;-69
2023/08/03 02:38:09;;;;;;;10.93;2.10;;;;;;;20.70;53.24;96172.16;5086862;28;20276;-70
2023/08/03 02:40:35;;;;;;;8.57;1.70;;;;;;;20.70;53.11;96166.84;5088179;28;20202;-70
2023/08/03 02:43:00;;;;;;;8.17;2.03;;;;;;;20.56;53.55;96160.22;5092453;28;20205;-70
2023/08/03 02:45:26;;;;;;;6.20;1.83;;;;;;;20.55;53.57;96161.25;5086044;28;20193;-69
2023/08/03 02:47:51;;;;;;;8.80;2.10;;;;;;;20.41;53.70;96166.91;5092748;28;20429;-68
2023/08/03 02:50:17;;;;;;;9.10;2.00;;;;;;;20.53;53.68;96156.19;5091418;28;20280;-70
2023/08/03 02:52:43;;;;;;;5.93;1.97;;;;;;;20.52;53.66;96164.44;5091653;28;20206;-70
2023/08/03 02:55:08;;;;;;;7.10;1.97;;;;;;;20.60;53.41;96165.88;5090222;28;20213;-69
2023/08/03 02:57:33;;;;;;;7.10;1.63;;;;;;;20.50;53.63;96162.00;5090832;28;20202;-69
2023/08/03 02:59:59;;;;;;;6.20;1.77;;;;;;;20.45;54.00;96169.09;5091475;28;20781;-69
2023/08/03 03:02:24;;;;;;;10.13;1.53;;;;;;;20.37;53.89;96170.28;5088220;28;20205;-69
2023/08/03 03:04:50;;;;;;;6.10;1.70;;;;;;;20.18;54.35;96172.34;5091114;28;20254;-70
2023/08/03 03:07:15;;;;;;;13.43;2.00;;;;;;;20.27;54.18;96160.28;5085999;28;20210;-70
2023/08/03 03:09:41;;;;;;;12.63;2.20;;;;;;;20.26;54.27;96175.44;5089762;28;20209;-70
2023/08/03 03:12:07;;;;;;;8.17;1.70;;;;;;;20.35;54.13;96170.53;5090682;28;20684;-70
2023/08/03 03:14:35;;;;;;;13.63;1.70;;;;;;;20.23;54.17;96167.13;5089920;28;20213;-70
2023/08/03 03:17:00;;;;;;;10.20;2.07;;;;;;;20.22;54.07;96186.78;5087654;28;20827;-70
2023/08/03 03:19:26;;;;;;;7.90;1.73;;;;;;;20.35;53.97;96180.38;5080948;28;20435;-70
2023/08/03 03:21:51;;;;;;;11.17;2.10;;;;;;;20.35;53.87;96175.84;5072754;28;20229;-71
2023/08/03 03:24:17;;;;;;;6.43;2.00;;;;;;;20.36;53.58;96174.81;5090491;28;20209;-69
2023/08/03 03:26:42;;;;;;;7.73;1.90;;;;;;;20.19;53.81;96165.97;5084098;28;20229;-71
2023/08/03 03:29:07;;;;;;;11.43;2.17;;;;;;;20.07;54.06;96172.16;5091140;28;20266;-69
2023/08/03 03:31:33;;;;;;;9.37;2.13;;;;;;;20.25;53.90;96165.03;5089391;28;20276;-70
2023/08/03 03:33:58;;;;;;;9.13;2.50;;;;;;;20.28;53.81;96169.88;5083874;28;20655;-69
2023/08/03 03:36:24;;;;;;;9.80;1.70;;;;;;;20.31;53.67;96173.91;5088849;28;20822;-69
2023/08/03 03:38:49;;;;;;;10.43;1.90;;;;;;;20.07;54.15;96164.19;5090040;28;20233;-69
2023/08/03 03:41:15;;;;;;;15.60;1.93;;;;;;;20.18;53.83;96145.75;5093106;28;20185;-69
2023/08/03 03:43:40;;;;;;;9.83;1.77;;;;;;;20.12;54.26;96166.13;5088674;28;20232;-69
2023/08/03 03:46:05;;;;;;;11.07;2.20;;;;;;;20.18;53.81;96165.19;5089749;28;20213;-70
2023/08/03 03:48:31;;;;;;;10.30;2.20;;;;;;;20.18;53.70;96159.88;5092558;28;20197;-70
2023/08/03 03:50:56;;;;;;;5.07;2.00;;;;;;;20.02;53.96;96164.13;5089287;28;20563;-69
2023/08/03 03:53:22;;;;;;;12.00;1.70;;;;;;;20.03;54.06;96165.72;5089601;28;20301;-69
2023/08/03 03:55:47;;;;;;;9.83;2.00;;;;;;;20.01;54.00;96165.16;5090365;28;20228;-70
2023/08/03 03:58:15;;;;;;;10.40;2.07;;;;;;;20.13;53.95;96159.75;5088036;28;20252;-70
2023/08/03 04:00:41;;;;;;;11.57;2.47;;;;;;;19.89;54.11;96156.41;5085299;28;20198;-70
2023/08/03 04:03:10;;;;;;;6.50;1.77;;;;;;;20.01;53.86;96154.53;5086601;28;20448;-70
2023/08/03 04:05:36;;;;;;;4.70;1.60;;;;;;;19.98;53.92;96143.53;5091677;28;20533;-70
2023/08/03 04:08:03;;;;;;;8.70;1.57;;;;;;;20.06;53.45;96143.97;5088522;28;20448;-69
2023/08/03 04:10:28;;;;;;;12.60;1.80;;;;;;;19.88;53.17;96154.81;5089122;28;20432;-69
2023/08/03 04:12:54;;;;;;;8.23;1.63;;;;;;;19.95;53.22;96150.97;5086490;28;20516;-70
2023/08/03 04:15:19;;;;;;;4.20;1.60;;;;;;;19.99;53.09;96156.59;5083912;28;20209;-69
2023/08/03 04:17:45;;;;;;;3.40;1.60;;;;;;;19.88;53.32;96162.78;5085047;28;20213;-71
2023/08/03 04:20:11;;;;;;;4.53;1.23;;;;;;;19.78;53.51;96161.50;5086682;28;20186;-69
2023/08/03 04:22:37;;;;;;;5.90;1.33;;;;;;;19.82;52.84;96167.16;5083906;28;20416;-70
2023/08/03 04:25:03;;;;;;;8.63;1.50;;;;;;;19.89;52.32;96167.84;5079608;28;20818;-70
2023/08/03 04:27:29;;;;;;;4.00;1.40;;;;;;;19.94;52.15;96183.09;5080006;28;20201;-69
2023/08/03 04:29:54;;;;;;;4.93;1.20;;;;;;;20.03;51.86;96181.69;5084206;28;20440;-70
2023/08/03 04:32:20;;;;;;;5.00;1.67;;;;;;;20.07;51.41;96187.31;5085122;28;20210;-70
2023/08/03 04:34:45;;;;;;;2.23;1.10;;;;;;;20.07;51.00;96180.16;5087401;28;20275;-70
2023/08/03 04:37:10;;;;;;;4.70;1.27;;;;;;;19.95;51.05;96198.81;5085694;28;20210;-69
2023/08/03 04:39:36;;;;;;;5.40;1.03;;;;;;;20.08;50.94;96196.94;5084173;28;20265;-70
2023/08/03 04:42:01;;;;;;;4.07;1.00;;;;;;;20.16;50.96;96206.38;5085770;28;20221;-70
2023/08/03 04:44:27;;;;;;;4.70;0.93;;;;;;;20.16;50.69;96209.03;5083100;28;20213;-70
2023/08/03 04:46:52;;;;;;;2.60;0.83;;;;;;;20.25;50.78;96228.88;5082123;28;20252;-69
2023/08/03 04:49:18;;;;;;;4.30;1.10;;;;;;;20.31;50.63;96227.91;5089228;28;20200;-69
2023/08/03 04:51:44;;;;;;;2.90;0.90;;;;;;;20.35;50.72;96223.75;5086435;28;20189;-70
2023/08/03 04:54:11;;;;;;;2.63;0.90;;;;;;;20.37;50.91;96237.63;5085542;28;20200;-69
2023/08/03 04:56:36;;;;;;;4.93;1.30;;;;;;;20.35;50.95;96245.03;5081940;28;20232;-69
2023/08/03 04:59:02;;;;;;;3.80;1.00;;;;;;;20.38;50.84;96247.22;5077995;28;20429;-69
2023/08/03 05:01:27;;;;;;;3.00;1.20;;;;;;;20.45;51.34;96254.22;5089937;28;20194;-69
2023/08/03 05:03:55;;;;;;;2.63;1.17;;;;;;;20.57;51.11;96257.63;5085719;28;20185;-69
2023/08/03 05:06:20;;;;;;;5.07;1.20;;;;;;;20.62;51.04;96263.06;5092016;28;20197;-68
2023/08/03 05:08:46;;;;;;;2.43;0.90;;;;;;;20.65;51.22;96259.94;5075100;28;20809;-70
2023/08/03 05:11:11;;;;;;;5.73;1.87;;;;;;;20.66;51.23;96274.03;5086078;28;20189;-70
2023/08/03 05:13:37;;;;;;;2.23;0.80;;;;;;;20.66;51.42;96277.50;5085700;28;20563;-68
2023/08/03 05:16:03;;;;;;;2.50;1.00;;;;;;;20.61;51.29;96268.59;5087917;28;20200;-70
2023/08/03 05:18:28;;;;;;;3.17;1.57;;;;;;;20.51;51.08;96271.91;5079229;28;20575;-70
2023/08/03 05:20:53;;;;;;;3.30;1.20;;;;;;;20.52;51.59;96286.84;5082401;28;20331;-70
2023/08/03 05:23:20;;;;;;;3.90;1.40;;;;;;;20.54;51.49;96274.09;5073717;28;20222;-70
2023/08/03 05:25:45;;;;;;;2.53;0.90;;;;;;;20.54;52.02;96279.44;5083314;28;20187;-70
2023/08/03 05:28:11;;;;;;;10.00;1.20;;;;;;;20.60;52.02;96286.44;5082678;28;20459;-70
2023/08/03 05:30:36;;;;;;;3.53;1.00;;;;;;;20.57;51.74;96308.19;5079745;28;20203;-72
2023/08/03 05:33:02;;;;;;;6.87;0.93;;;;;;;20.64;51.46;96303.56;5082895;28;20246;-70
2023/08/03 05:35:28;;;;;;;3.10;1.20;;;;;;;20.55;51.93;96307.63;5076998;28;20186;-69
2023/08/03 05:37:53;;;;;;;3.90;1.00;;;;;;;20.40;52.13;96316.97;5082555;28;20440;-69
2023/08/03 05:40:20;;;;;;;4.80;0.97;;;;;;;20.40;52.48;96308.97;5083007;28;20201;-70
2023/08/03 05:42:46;;;;;;;4.63;1.00;;;;;;;20.39;52.71;96315.34;5085819;28;20194;-69
2023/08/03 05:45:14;;;;;;;3.23;0.83;;;;;;;20.39;52.83;96315.34;5078780;28;20432;-69
2023/08/03 05:47:40;;;;;;;5.70;1.37;;;;;;;20.50;52.89;96326.97;5079810;28;20217;-69
2023/08/03 05:50:15;;;;;;;3.97;1.00;;;;;;;20.45;52.76;96316.25;5082126;28;20435;-69
2023/08/03 05:52:41;;;;;;;3.43;1.20;;;;;;;20.46;52.69;96322.38;5080676;28;20205;-69
2023/08/03 05:55:10;;;;;;;2.63;1.00;;;;;;;20.53;52.84;96333.69;5083442;28;20431;-68
2023/08/03 05:57:36;;;;;;;4.30;1.17;;;;;;;20.55;52.39;96323.59;5085029;28;20205;-69
2023/08/03 06:00:04;;;;;;;3.47;1.20;;;;;;;20.50;52.65;96331.50;5089415;28;20453;-68
2023/08/03 06:02:33;;;;;;;4.83;1.10;;;;;;;20.59;52.60;96324.75;5076925;28;20193;-69
2023/08/03 06:04:59;;;;;;;2.50;1.03;;;;;;;20.62;52.45;96323.44;5083325;28;20442;-69
2023/08/03 06:07:25;;;;;;;4.30;1.07;;;;;;;20.68;52.19;96331.28;5082170;28;20456;-69
2023/08/03 06:09:50;;;;;;;3.87;1.63;;;;;;;20.72;52.33;96340.44;5084852;28;20221;-69
2023/08/03 06:12:16;;;;;;;3.70;1.40;;;;;;;20.73;51.99;96338.56;5081231;28;20694;-69
2023/08/03 06:14:41;;;;;;;9.60;1.47;;;;;;;20.70;51.84;96347.84;5077250;28;20190;-69
2023/08/03 06:17:09;;;;;;;3.40;1.20;;;;;;;20.71;51.82;96349.47;5087410;28;20220;-69
2023/08/03 06:19:35;;;;;;;2.87;0.90;;;;;;;20.60;51.95;96350.31;5088289;28;20569;-69
2023/08/03 06:22:14;;;;;;;3.90;1.33;;;;;;;20.76;51.20;96356.75;5082990;28;20439;-70
2023/08/03 06:24:39;;;;;;;5.00;1.83;;;;;;;20.69;51.47;96351.53;5085420;28;20449;-70
2023/08/03 06:27:05;;;;;;;3.43;1.40;;;;;;;20.82;50.97;96355.00;5085309;28;20459;-68
2023/08/03 06:29:30;;;;;;;5.73;1.97;;;;;;;20.92;50.47;96333.88;5085715;28;20190;-69
2023/08/03 06:31:55;;;;;;;4.57;1.47;;;;;;;21.12;49.97;96337.94;5085391;28;20363;-69
2023/08/03 06:34:21;;;;;;;3.33;1.63;;;;;;;21.31;48.59;96347.31;5079211;28;20691;-70
2023/08/03 06:36:48;;;;;;;10.07;1.53;;;;;;;21.47;48.22;96339.56;5080876;28;20214;-69
2023/08/03 06:39:14;;;;;;;6.73;1.37;;;;;;;21.70;46.64;96333.28;5078518;28;20250;-70
2023/08/03 06:41:39;;;;;;;3.97;1.20;;;;;;;21.79;45.63;96355.00;5080178;28;20439;-68
2023/08/03 06:44:05;;;;;;;3.73;1.13;;;;;;;21.69;43.77;96345.00;5086092;28;20184;-69
2023/08/03 06:46:30;;;;;;;7.60;1.17;;;;;;;21.84;43.82;96344.38;5087132;28;20185;-68
2023/08/03 06:48:56;;;;;;;7.13;1.23;;;;;;;22.08;43.33;96357.50;5088288;28;20198;-68
2023/08/03 06:51:22;;;;;;;4.53;1.27;;;;;;;22.18;42.74;96343.50;5078295;28;20248;-70
2023/08/03 06:53:48;;;;;;;4.57;1.20;;;;;;;22.37;42.57;96358.13;5076539;28;20209;-69
2023/08/03 06:56:13;;;;;;;2.50;0.97;;;;;;;22.33;42.17;96364.22;5076843;28;20190;-69
2023/08/03 06:58:39;;;;;;;3.93;1.10;;;;;;;22.31;42.16;96367.16;5084473;28;20436;-69
2023/08/03 07:01:04;;;;;;;2.73;1.00;;;;;;;22.52;42.23;96360.22;5074707;28;20294;-71
2023/08/03 07:03:30;;;;;;;3.00;1.07;;;;;;;22.65;42.01;96379.59;5078219;28;20181;-68
2023/08/03 07:05:57;;;;;;;4.03;1.00;;;;;;;22.55;42.02;96391.78;5081860;28;20193;-68
2023/08/03 07:08:22;;;;;;;4.83;1.07;;;;;;;22.85;41.77;96379.00;5082806;28;20210;-68
2023/08/03 07:10:47;;;;;;;4.20;1.13;;;;;;;22.75;41.43;96374.34;5081676;28;20455;-67
2023/08/03 07:13:13;;;;;;;4.70;1.27;;;;;;;22.78;40.99;96383.72;5078931;28;22206;-70
2023/08/03 07:15:39;;;;;;;4.23;1.00;;;;;;;22.96;40.97;96382.56;5081222;28;20189;-70
2023/08/03 07:18:05;;;;;;;3.00;0.90;;;;;;;23.08;41.15;96385.91;5085892;28;20513;-72
2023/08/03 07:20:32;;;;;;;3.27;1.10;;;;;;;23.37;40.80;96374.97;5082896;28;20182;-70
2023/08/03 07:22:58;;;;;;;3.73;1.10;;;;;;;23.36;40.73;96381.38;5076563;28;20455;-70
2023/08/03 07:25:24;;;;;;;2.60;0.87;;;;;;;23.46;40.14;96372.63;5092388;28;20467;-70
2023/08/03 07:27:50;;;;;;;3.00;1.07;;;;;;;23.53;40.04;96369.75;5081336;28;20212;-70
2023/08/03 07:30:16;;;;;;;3.27;0.97;;;;;;;23.62;40.62;96369.03;5084348;28;20626;-70
2023/08/03 07:32:42;;;;;;;2.03;0.90;;;;;;;23.65;40.08;96378.41;5095306;28;20460;-69
2023/08/03 07:35:07;;;;;;;1.83;1.03;;;;;;;23.71;40.38;96390.72;5093821;28;20200;-70
2023/08/03 07:37:32;;;;;;;4.97;0.93;;;;;;;23.72;40.05;96392.34;5085892;28;20221;-70
2023/08/03 07:39:58;;;;;;;1.50;0.80;;;;;;;23.93;39.72;96395.97;5074280;28;20195;-69
2023/08/03 07:42:23;;;;;;;4.20;1.13;;;;;;;23.62;39.72;96397.63;5082743;28;20259;-69
2023/08/03 07:44:53;;;;;;;1.67;1.03;;;;;;;23.75;39.45;96399.06;5080816;28;20277;-69
2023/08/03 07:47:19;;;;;;;1.87;0.80;;;;;;;23.91;39.29;96397.28;5080952;28;20214;-70
2023/08/03 07:49:45;;;;;;;3.20;1.00;;;;;;;24.13;39.25;96404.41;5089849;28;20430;-70
2023/08/03 07:52:10;;;;;;;1.73;0.83;;;;;;;24.31;39.29;96395.94;5073168;28;20221;-70
2023/08/03 07:54:36;;;;;;;3.30;1.00;;;;;;;24.34;39.02;96408.00;5083569;28;20197;-68
2023/08/03 07:57:01;;;;;;;2.63;1.00;;;;;;;23.85;39.58;96409.00;5082864;28;20213;-69
2023/08/03 07:59:26;;;;;;;4.53;1.20;;;;;;;24.01;38.78;96413.44;5085038;28;20234;-68
2023/08/03 08:01:52;;;;;;;2.63;1.00;;;;;;;23.91;39.50;96411.47;5081265;28;20278;-67
2023/08/03 08:04:18;;;;;;;4.73;1.10;;;;;;;23.96;39.26;96417.94;5082879;28;20296;-68
2023/08/03 08:06:44;;;;;;;2.50;0.80;;;;;;;23.87;39.52;96430.97;5086997;28;20225;-69
2023/08/03 08:09:10;;;;;;;3.00;1.00;;;;;;;24.04;39.22;96404.09;5083263;28;20456;-70
2023/08/03 08:11:35;;;;;;;2.60;0.83;;;;;;;23.98;39.62;96403.25;5080546;28;20843;-70
2023/08/03 08:14:01;;;;;;;5.33;1.20;;;;;;;24.09;39.62;96417.50;5081989;28;20228;-69
2023/08/03 08:16:27;;;;;;;3.40;1.30;;;;;;;24.02;39.82;96422.25;5086371;28;20197;-69
2023/08/03 08:18:52;;;;;;;2.23;0.87;;;;;;;24.13;39.38;96417.78;5082900;28;20193;-70
2023/08/03 08:21:17;;;;;;;4.50;0.80;;;;;;;24.35;39.68;96423.78;5087487;28;20276;-69
2023/08/03 08:23:43;;;;;;;3.47;1.00;;;;;;;24.13;39.03;96431.97;5088491;28;20190;-68
2023/08/03 08:26:13;;;;;;;2.77;1.00;;;;;;;24.19;39.23;96427.47;5087197;28;20666;-69
2023/08/03 08:28:40;;;;;;;1.50;1.00;;;;;;;24.12;39.31;96425.03;5086406;28;20275;-70
2023/08/03 08:31:05;;;;;;;3.80;1.17;;;;;;;24.12;39.27;96432.22;5086108;28;20443;-70
2023/08/03 08:33:30;;;;;;;2.10;0.80;;;;;;;24.50;39.36;96427.63;5086914;28;20532;-70
2023/08/03 08:35:56;;;;;;;1.87;0.93;;;;;;;24.76;38.34;96425.88;5084346;28;20196;-68
2023/08/03 08:38:21;;;;;;;7.13;1.17;;;;;;;24.72;38.63;96440.03;5085758;28;20219;-69
2023/08/03 08:40:48;;;;;;;2.90;1.00;;;;;;;24.79;39.00;96440.63;5071080;28;20618;-68
2023/08/03 08:43:14;;;;;;;2.87;1.07;;;;;;;24.23;38.75;96445.44;5088061;28;20197;-68
2023/08/03 08:45:40;;;;;;;2.90;0.83;;;;;;;24.61;38.48;96437.31;5087037;28;20924;-70
2023/08/03 08:48:05;;;;;;;2.77;0.80;;;;;;;24.75;38.60;96439.53;5086074;28;20213;-69
2023/08/03 08:50:32;;;;;;;2.17;0.70;;;;;;;25.00;37.67;96417.38;5084548;28;20280;-69
2023/08/03 08:52:58;;;;;;;2.27;0.80;;;;;;;25.07;37.02;96451.97;5092491;28;20205;-69
2023/08/03 08:55:28;;;;;;;2.07;0.80;;;;;;;25.05;37.76;96444.19;5085377;28;20539;-69
2023/08/03 08:57:54;;;;;;;9.60;0.80;;;;;;;25.48;36.98;96459.31;5094560;28;20439;-69
2023/08/03 09:00:20;;;;;;;2.00;0.80;;;;;;;25.52;36.42;96452.34;5085292;28;20453;-69
2023/08/03 09:02:46;;;;;;;2.40;1.00;;;;;;;25.28;36.62;96458.97;5084654;28;20181;-68
2023/08/03 09:05:15;;;;;;;4.03;1.00;;;;;;;25.12;36.86;96465.38;5083927;28;20922;-70
2023/08/03 09:07:41;;;;;;;2.00;0.70;;;;;;;25.08;36.58;96464.28;5086625;28;20491;-70
2023/08/03 09:10:07;;;;;;;4.13;0.83;;;;;;;25.06;37.01;96461.88;5086468;28;20443;-70
2023/08/03 09:12:33;;;;;;;2.40;0.73;;;;;;;25.41;37.19;96464.94;5085067;28;20534;-69
2023/08/03 09:14:58;;;;;;;4.60;0.80;;;;;;;25.48;36.34;96462.00;5077817;28;20442;-69
2023/08/03 09:17:25;;;;;;;1.77;0.70;;;;;;;25.40;36.68;96479.38;5086344;28;20213;-70
2023/08/03 09:19:51;;;;;;;1.20;0.60;;;;;;;25.64;36.27;96477.03;5083378;28;20194;-69
2023/08/03 09:22:21;;;;;;;1.93;0.70;;;;;;;25.53;36.49;96476.22;5080662;28;20446;-70
2023/08/03 09:24:59;;;;;;;1.90;0.70;;;;;;;25.84;36.35;96473.53;5082993;28;20447;-69
2023/08/03 09:27:24;;;;;;;6.30;0.70;;;;;;;25.70;36.01;96478.63;5080522;28;20463;-68
2023/08/03 09:29:49;;;;;;;1.33;0.70;;;;;;;25.63;35.91;96498.75;5079526;28;20448;-68
2023/08/03 09:32:15;;;;;;;3.23;0.73;;;;;;;25.69;36.10;96485.06;5082190;28;20228;-69
2023/08/03 09:34:42;;;;;;;2.47;0.90;;;;;;;25.66;36.41;96485.59;5080288;28;20231;-69
2023/08/03 09:37:08;;;;;;;1.20;0.60;;;;;;;25.64;36.03;96492.31;5078474;28;21535;-69
2023/08/03 09:39:36;;;;;;;1.73;0.73;;;;;;;25.73;35.90;96488.03;5077998;28;20436;-69
2023/08/03 09:42:05;;;;;;;2.60;0.70;;;;;;;25.83;35.94;96484.53;5079090;28;20429;-69
2023/08/03 09:44:36;;;;;;;2.63;0.80;;;;;;;25.81;36.31;96503.59;5076440;28;20511;-69
2023/08/03 09:47:02;;;;;;;7.43;0.70;;;;;;;25.52;36.58;96498.75;5080924;28;20451;-69
2023/08/03 09:49:28;;;;;;;1.67;0.83;;;;;;;25.21;37.44;96516.59;5080687;28;20434;-70
2023/08/03 09:51:56;;;;;;;3.53;0.87;;;;;;;25.25;37.15;96498.94;5073331;28;20451;-68
2023/08/03 09:54:35;;;;;;;2.67;1.00;;;;;;;25.38;37.33;96498.41;5081206;28;20201;-69
2023/08/03 09:57:03;;;;;;;2.17;0.80;;;;;;;25.64;36.73;96492.31;5078639;28;20524;-69
2023/08/03 09:59:32;;;;;;;2.30;0.80;;;;;;;25.72;37.07;96505.19;5078698;28;20436;-69
2023/08/03 10:01:59;;;;;;;2.73;0.70;;;;;;;25.63;37.07;96506.78;5077814;28;20424;-68
2023/08/03 10:04:29;;;;;;;2.47;1.00;;;;;;;25.69;36.78;96498.47;5082468;28;20433;-69
2023/08/03 10:06:59;;;;;;;1.13;0.60;;;;;;;25.57;36.77;96503.28;5081047;28;20445;-70
2023/08/03 10:09:28;;;;;;;1.77;0.70;;;;;;;25.38;37.25;96511.84;5071361;28;20814;-68
2023/08/03 10:11:55;;;;;;;1.97;0.60;;;;;;;25.32;37.60;96504.81;5079483;28;20439;-70
2023/08/03 10:14:25;;;;;;;2.37;0.80;;;;;;;25.30;37.36;96510.47;5072843;28;20435;-69
2023/08/03 10:16:51;;;;;;;2.80;0.80;;;;;;;25.30;37.86;96548.00;5085509;28;20447;-69
2023/08/03 10:19:17;;;;;;;2.50;0.70;;;;;;;25.22;38.09;96516.31;5081707;28;20466;-69
2023/08/03 10:21:43;;;;;;;2.40;0.80;;;;;;;25.23;37.50;96525.97;5083846;28;20467;-69
2023/08/03 10:24:17;;;;;;;2.83;0.70;;;;;;;25.24;37.88;96534.84;5098645;28;20193;-70
2023/08/03 10:26:49;;;;;;;2.00;0.70;;;;;;;25.26;37.51;96530.81;5085172;28;20209;-69
2023/08/03 10:29:14;;;;;;;1.20;0.80;;;;;;;25.23;37.99;96530.56;5081653;28;20566;-68
2023/08/03 10:31:52;;;;;;;1.57;0.60;;;;;;;25.20;38.21;96534.56;5082870;28;20975;-69
2023/08/03 10:34:27;;;;;;;2.80;0.60;;;;;;;25.05;38.21;96532.63;5074612;28;20201;-68
2023/08/03 10:36:55;;;;;;;4.60;1.00;;;;;;;25.03;38.01;96529.38;5074115;28;20454;-69
2023/08/03 10:39:47;;;;;;;5.40;0.90;;;;;;;24.76;38.22;96537.59;5080936;28;20433;-69
2023/08/03 10:42:20;;;;;;;3.77;0.93;;;;;;;24.57;38.53;96539.84;5077542;28;20568;-70
2023/08/03 10:44:46;;;;;;;1.50;0.60;;;;;;;24.63;38.66;96541.50;5076952;28;21685;-68
2023/08/03 10:47:25;;;;;;;5.00;1.00;;;;;;;24.48;38.33;96539.53;5081879;28;20455;-68
2023/08/03 10:49:52;;;;;;;1.63;0.70;;;;;;;24.42;39.25;96548.59;5075808;28;20194;-69
2023/08/03 10:52:19;;;;;;;2.87;0.70;;;;;;;24.42;39.16;96562.00;5079075;28;20459;-69
2023/08/03 10:54:45;;;;;;;1.90;0.70;;;;;;;24.18;39.37;96538.25;5078130;28;21081;-69
2023/08/03 10:57:17;;;;;;;6.20;0.90;;;;;;;24.32;39.11;96555.47;5076971;28;20943;-68
2023/08/03 10:59:50;;;;;;;1.63;0.80;;;;;;;24.36;39.43;96543.19;5077355;28;20429;-69
2023/08/03 11:02:20;;;;;;;2.10;0.70;;;;;;;24.25;39.08;96549.56;5085892;28;20427;-69
2023/08/03 11:04:46;;;;;;;1.97;0.67;;;;;;;24.39;39.31;96539.19;5078373;28;20804;-69
2023/08/03 11:07:15;;;;;;;1.97;0.70;;;;;;;24.51;39.37;96555.09;5084274;28;20491;-70
2023/08/03 11:09:40;;;;;;;1.70;0.90;;;;;;;24.64;38.87;96543.09;5082172;28;21201;-68
2023/08/03 11:12:07;;;;;;;3.57;0.90;;;;;;;24.89;38.19;96547.03;5084258;28;20438;-69
2023/08/03 11:14:34;;;;;;;2.53;0.87;;;;;;;25.18;38.13;96549.28;5080165;28;20202;-68
2023/08/03 11:16:59;;;;;;;1.93;0.80;;;;;;;25.35;37.21;96555.25;5092292;28;20451;-69
2023/08/03 11:19:32;;;;;;;2.97;0.80;;;;;;;25.17;37.20;96556.53;5094332;28;20434;-69
2023/08/03 11:21:58;;;;;;;1.83;0.80;;;;;;;25.35;36.72;96544.53;5087414;28;20251;-69
2023/08/03 11:24:23;;;;;;;1.63;0.70;;;;;;;25.27;37.01;96550.38;5087579;28;20463;-69
2023/08/03 11:26:51;;;;;;;1.47;0.73;;;;;;;25.08;37.61;96560.75;5087533;28;20459;-68
2023/08/03 11:29:16;;;;;;;1.20;0.57;;;;;;;25.23;37.51;96546.63;5085335;28;20202;-68